Flight Track Log - Related Links

Times and Time Zones

All times are in EDT time to prevent confusion due to time zone crossing. See the FIN666 flight status page for this flight to view local times or setup timezone preferences in your user account.

Time Position Orientation Groundspeed Altitude Reporting Facility
EDT Latitude Longitude Course Direction KTS MPH feet Rate Location/Type
Fri 07:34:00 AM 55.8217 13.0768 49° Northeast  Level Estimated
Fri 07:35:00 AM 55.8894 13.2181 49° Northeast  Level Estimated
Fri 07:36:00 AM 55.9568 13.3599 50° Northeast  Level Estimated
Fri 07:37:00 AM 56.0319 13.5186 50° Northeast  Level Estimated
Fri 07:38:00 AM 56.1068 13.6780 50° Northeast  Level Estimated
Fri 07:39:00 AM 56.1815 13.8380 50° Northeast  Level Estimated
Fri 07:40:00 AM 56.2559 13.9987 50° Northeast  Level Estimated
Fri 07:41:00 AM 56.3302 14.1600 50° Northeast  Level Estimated
Fri 07:42:00 AM 56.4042 14.3218 50° Northeast  Level Estimated
Fri 07:43:00 AM 56.4781 14.4844 51° Northeast  Level Estimated
Fri 07:44:00 AM 56.5517 14.6475 51° Northeast  Level Estimated
Fri 07:45:00 AM 56.6251 14.8113 51° Northeast  Level Estimated
Fri 07:46:00 AM 56.6983 14.9757 51° Northeast  Level Estimated
Fri 07:47:00 AM 56.7713 15.1408 51° Northeast  Level Estimated
Fri 07:48:00 AM 56.8440 15.3065 51° Northeast  Level Estimated
Fri 07:49:00 AM 56.9166 15.4729 51° Northeast  Level Estimated
Fri 07:50:00 AM 56.9889 15.6399 51° Northeast  Level Estimated
Fri 07:51:00 AM 57.0610 15.8075 52° Northeast  Level Estimated
Fri 07:52:00 AM 57.1328 15.9758 52° Northeast  Level Estimated
Fri 07:53:00 AM 57.2045 16.1448 52° Northeast  Level Estimated
Fri 07:54:00 AM 57.2759 16.3144 52° Northeast  Level Estimated
Fri 07:55:00 AM 57.3471 16.4847 52° Northeast  Level Estimated
Fri 07:56:00 AM 57.4160 16.6508 52° Northeast  Level Estimated
Fri 07:57:00 AM 57.4848 16.8175 52° Northeast  Level Estimated
Fri 07:58:00 AM 57.5533 16.9849 53° Northeast  Level Estimated
Fri 07:59:00 AM 57.6216 17.1528 53° Northeast  Level Estimated
Fri 08:00:00 AM 57.6897 17.3215 53° Northeast  Level Estimated
Fri 08:01:00 AM 57.7575 17.4907 53° Northeast  Level Estimated
Fri 08:02:00 AM 57.8251 17.6606 53° Northeast  Level Estimated
Fri 08:03:00 AM 57.8925 17.8312 53° Northeast  Level Estimated
Fri 08:04:00 AM 57.9597 18.0023 53° Northeast  Level Estimated
Fri 08:05:00 AM 58.0266 18.1741 54° Northeast  Level Estimated
Fri 08:06:00 AM 58.0933 18.3466 54° Northeast  Level Estimated
Fri 08:07:00 AM 58.1598 18.5197 54° Northeast  Level Estimated
Fri 08:08:00 AM 58.2260 18.6934 54° Northeast  Level Estimated
Fri 08:09:00 AM 58.2920 18.8678 54° Northeast  Level Estimated
Fri 08:10:00 AM 58.3578 19.0429 54° Northeast  Level Estimated
Fri 08:11:00 AM 58.4233 19.2185 54° Northeast  Level Estimated
Fri 08:12:00 AM 58.4885 19.3949 55° Northeast  Level Estimated
Fri 08:13:00 AM 58.5536 19.5719 55° Northeast  Level Estimated
Fri 08:14:00 AM 58.6184 19.7496 55° Northeast  Level Estimated
Fri 08:15:00 AM 58.6829 19.9279 55° Northeast  Level Estimated
Fri 08:16:00 AM 58.7472 20.1069 55° Northeast  Level Estimated
Fri 08:17:00 AM 58.8112 20.2865 55° Northeast  Level Estimated
Fri 08:18:00 AM 58.8750 20.4668 56° Northeast  Level Estimated
Fri 08:19:00 AM 58.9386 20.6478 56° Northeast  Level Estimated
Fri 08:20:00 AM 59.0019 20.8294 56° Northeast  Level Estimated
Fri 08:21:00 AM 59.0649 21.0117 56° Northeast  Level Estimated
Fri 08:22:00 AM 59.1277 21.1947 56° Northeast  Level Estimated
Fri 08:23:00 AM 59.1902 21.3783 56° Northeast  Level Estimated
Fri 08:24:00 AM 59.2525 21.5627 56° Northeast  Level Estimated
Fri 08:25:00 AM 59.3136 21.7451 57° Northeast  Level Estimated
Fri 08:26:00 AM 59.3745 21.9281 57° Northeast  Level Estimated
Fri 08:27:00 AM 59.4351 22.1119 57° Northeast  Level Estimated
Fri 08:28:00 AM 59.4955 22.2962 57° Northeast  Level Estimated
Fri 08:29:00 AM 59.5556 22.4813 57° Northeast  Level Estimated
Fri 08:30:00 AM 59.6154 22.6670 57° Northeast  Level Estimated
Fri 08:31:00 AM 59.6750 22.8534 58° Northeast  Level Estimated
Fri 08:32:00 AM 59.7343 23.0404 58° Northeast  Level Estimated
Fri 08:33:00 AM 59.7934 23.2281 58° Northeast  Level Estimated
Fri 08:34:00 AM 59.8522 23.4164 58° Northeast  Level Estimated
Fri 08:35:00 AM 59.9107 23.6055 58° Northeast  Level Estimated
Fri 08:36:00 AM 59.9689 23.7952 58° Northeast  Level Estimated
Fri 08:37:00 AM 60.0269 23.9855 59° Northeast  Level Estimated
Fri 08:38:00 AM 60.0846 24.1765 59° Northeast  Level Estimated
Fri 08:39:00 AM 60.1420 24.3682 59° Northeast  Level Estimated
Fri 08:40:00 AM 60.1991 24.5606 59° Northeast  Level Estimated
Fri 08:41:00 AM 60.2560 24.7536 59° Northeast  Level Estimated
Fri 08:42:00 AM 60.3126 24.9473 59° Northeast  Level Estimated
Fri 08:43:00 AM 60.3172 24.9633 60° Northeast  Level Estimated
Fri 08:44:00 AM 60.3172 24.9633 North  Level Estimated
Fri 08:45:00 AM 60.3172 24.9633 North  Level Estimated
Fri 08:46:00 AM 60.3172 24.9633 North  Level Estimated
Fri 08:47:00 AM 60.3172 24.9633 North  Level Estimated
Fri 08:48:00 AM 60.3172 24.9633 North  Level Estimated
Fri 08:49:00 AM 60.3172 24.9633 North  Level Estimated
Fri 08:50:00 AM 60.3172 24.9633 North  Level Estimated

Login

Don't have an account? Register now (free) for customized features, flight alerts, and more!